Time;durP1;ratioP1;P1;durP2;ratioP2;P2;SDS_P1;SDS_P2;PMS_P1;PMS_P2;Temp;Humidity;BMP_temperature;BMP_pressure;BME280_temperature;BME280_humidity;BME280_pressure;Samples;Min_cycle;Max_cycle;Signal;HPM_P1;HPM_P2
2021/07/06 00:00:32;;;;;;;;;6.33;5.67;;;;;23.40;47.36;98190.22;4909220;28;102467;-84
2021/07/06 00:02:59;;;;;;;;;6.67;6.00;;;;;23.38;47.37;98186.94;4880223;28;102625;-84
2021/07/06 00:05:26;;;;;;;;;5.67;5.67;;;;;23.38;47.27;98187.75;4908559;28;104467;-84
2021/07/06 00:07:53;;;;;;;;;5.00;5.00;;;;;23.38;47.32;98187.75;4909885;28;103402;-84
2021/07/06 00:10:22;;;;;;;;;5.33;5.33;;;;;23.36;47.32;98187.25;4897916;28;103013;-84
2021/07/06 00:12:49;;;;;;;;;9.67;6.00;;;;;23.36;47.26;98189.19;4910916;28;102431;-83
2021/07/06 00:15:19;;;;;;;;;6.33;6.00;;;;;23.36;47.18;98200.22;4939392;28;103902;-83
2021/07/06 00:17:46;;;;;;;;;5.67;5.00;;;;;23.35;47.05;98190.28;4908905;28;103221;-83
2021/07/06 00:20:14;;;;;;;;;7.33;7.00;;;;;23.35;47.27;98190.28;4901481;28;102579;-84
2021/07/06 00:22:42;;;;;;;;;7.00;6.33;;;;;23.34;47.22;98185.88;4907335;28;102311;-84
2021/07/06 00:25:10;;;;;;;;;6.00;6.00;;;;;23.33;47.20;98195.25;4899015;28;104154;-83
2021/07/06 00:27:37;;;;;;;;;6.00;5.33;;;;;23.32;47.29;98200.00;4909433;28;102902;-83
2021/07/06 00:30:05;;;;;;;;;6.33;6.00;;;;;23.31;47.26;98206.59;4931650;28;102641;-83
2021/07/06 00:32:32;;;;;;;;;6.00;5.33;;;;;23.28;47.24;98203.63;4921232;28;103133;-83
2021/07/06 00:35:00;;;;;;;;;4.00;4.00;;;;;23.31;47.35;98209.38;4906679;28;103977;-84
2021/07/06 00:37:27;;;;;;;;;4.33;4.00;;;;;23.30;47.56;98204.97;4908544;28;103394;-83
2021/07/06 00:39:54;;;;;;;;;6.00;5.33;;;;;23.30;47.36;98209.66;4923984;28;102173;-83
2021/07/06 00:42:21;;;;;;;;;6.00;6.00;;;;;23.30;47.11;98212.41;4903078;28;102654;-83
2021/07/06 00:44:48;;;;;;;;;6.00;6.00;;;;;23.29;47.30;98208.00;4916244;28;104739;-83
2021/07/06 00:47:15;;;;;;;;;6.33;6.00;;;;;23.29;47.23;98208.00;4918924;28;103405;-82
2021/07/06 00:49:42;;;;;;;;;6.00;5.00;;;;;23.28;47.21;98209.94;4896482;28;103331;-83
2021/07/06 00:52:09;;;;;;;;;7.33;7.00;;;;;23.28;47.14;98214.66;4901596;28;102576;-82
2021/07/06 00:54:36;;;;;;;;;7.67;7.00;;;;;23.26;47.21;98212.19;4918721;28;104269;-84
2021/07/06 00:57:04;;;;;;;;;6.00;6.00;;;;;23.25;47.00;98216.06;4892127;28;103195;-84
2021/07/06 00:59:31;;;;;;;;;5.67;5.67;;;;;23.26;47.00;98216.88;4911412;28;103451;-85
2021/07/06 01:01:58;;;;;;;;;6.33;5.00;;;;;23.25;47.01;98220.75;4880330;28;102213;-85
2021/07/06 01:04:25;;;;;;;;;7.00;5.00;;;;;23.25;47.08;98221.56;4883171;28;104048;-84
2021/07/06 01:06:52;;;;;;;;;6.67;6.00;;;;;23.25;46.99;98215.22;4908032;28;102625;-84
2021/07/06 01:09:19;;;;;;;;;6.00;5.33;;;;;23.24;46.96;98219.91;4909701;28;102196;-84
2021/07/06 01:11:46;;;;;;;;;6.33;6.00;;;;;23.24;46.93;98224.59;4900685;28;102352;-84
2021/07/06 01:14:18;;;;;;;;;6.33;6.33;;;;;23.23;47.10;98214.72;4904721;28;104900;-84
2021/07/06 01:16:46;;;;;;;;;7.33;7.33;;;;;23.24;47.09;98224.59;4904864;28;102496;-84
2021/07/06 01:19:16;;;;;;;;;7.33;6.00;;;;;23.23;46.88;98217.47;4902208;28;102583;-84
2021/07/06 01:21:43;;;;;;;;;6.67;6.00;;;;;23.22;46.95;98218.56;4894788;28;102799;-84
2021/07/06 01:24:11;;;;;;;;;7.00;7.00;;;;;23.22;46.93;98215.81;4928295;28;104185;-82
2021/07/06 01:26:38;;;;;;;;;7.00;7.00;;;;;23.21;46.94;98211.41;4901762;28;102351;-82
2021/07/06 01:29:05;;;;;;;;;7.00;6.67;;;;;23.20;46.71;98213.34;4904879;28;102273;-83
2021/07/06 01:31:32;;;;;;;;;7.33;6.67;;;;;23.21;47.00;98216.91;4912623;28;102651;-82
2021/07/06 01:34:00;;;;;;;;;6.00;5.67;;;;;23.20;46.85;98212.50;4912632;28;104263;-82
2021/07/06 01:36:27;;;;;;;;;6.00;6.00;;;;;23.19;46.84;98230.19;4896990;28;103601;-82
2021/07/06 01:38:54;;;;;;;;;6.00;6.00;;;;;23.16;46.86;98217.78;4919755;28;102484;-82
2021/07/06 01:41:21;;;;;;;;;8.00;7.00;;;;;23.16;47.09;98226.06;4899200;28;102734;-82
2021/07/06 01:43:49;;;;;;;;;7.33;5.33;;;;;23.16;47.09;98222.50;4905314;28;104325;-82
2021/07/06 01:46:16;;;;;;;;;6.00;6.00;;;;;23.17;46.98;98224.16;4918338;28;102128;-82
2021/07/06 01:48:43;;;;;;;;;7.67;6.00;;;;;23.14;46.98;98218.09;4916952;28;102157;-82
2021/07/06 01:51:10;;;;;;;;;8.00;7.33;;;;;23.13;47.08;98227.50;4901233;28;103668;-82
2021/07/06 01:53:37;;;;;;;;;7.00;7.00;;;;;23.13;47.04;98223.91;4927438;28;104147;-83
2021/07/06 01:56:06;;;;;;;;;6.67;6.33;;;;;23.11;46.97;98221.44;4923238;28;102234;-85
2021/07/06 01:58:33;;;;;;;;;8.00;7.00;;;;;23.11;47.00;98224.19;4899360;28;102473;-85
2021/07/06 02:01:00;;;;;;;;;7.33;7.33;;;;;23.10;46.86;98219.78;4918613;28;104986;-86
2021/07/06 02:03:28;;;;;;;;;6.67;6.33;;;;;23.11;46.96;98224.19;4932161;28;103130;-85
2021/07/06 02:05:58;;;;;;;;;8.00;8.00;;;;;23.09;46.96;98220.91;4917826;28;102331;-85
2021/07/06 02:08:25;;;;;;;;;10.33;7.33;;;;;23.08;47.07;98227.53;4908938;28;102395;-85
2021/07/06 02:10:54;;;;;;;;;8.00;7.00;;;;;23.09;46.93;98223.69;4926237;28;102243;-85
2021/07/06 02:13:23;;;;;;;;;8.00;7.00;;;;;23.07;46.92;98222.31;4901233;28;104067;-85
2021/07/06 02:15:52;;;;;;;;;10.67;8.33;;;;;23.07;47.02;98220.38;4926200;28;102560;-85
2021/07/06 02:18:20;;;;;;;;;7.00;6.00;;;;;23.06;46.77;98217.91;4933076;28;102623;-86
2021/07/06 02:20:52;;;;;;;;;8.67;7.67;;;;;23.06;46.88;98223.41;4901767;28;102279;-85
2021/07/06 02:23:19;;;;;;;;;7.67;7.67;;;;;23.05;46.82;98216.28;4901975;28;109069;-86
2021/07/06 02:25:47;;;;;;;;;7.33;7.00;;;;;23.04;46.77;98225.66;4926340;28;102444;-86
2021/07/06 02:28:14;;;;;;;;;7.00;6.33;;;;;23.02;46.76;98217.66;4909186;28;102536;-86
2021/07/06 02:30:41;;;;;;;;;7.67;6.67;;;;;23.02;46.80;98222.34;4907620;28;106585;-85
2021/07/06 02:33:08;;;;;;;;;8.33;7.33;;;;;23.02;46.71;98228.69;4916505;28;104131;-86
2021/07/06 02:35:35;;;;;;;;;8.00;8.00;;;;;23.01;46.61;98221.53;4920927;28;102714;-85
2021/07/06 02:38:02;;;;;;;;;7.00;6.00;;;;;22.99;46.80;98228.47;4915711;28;103201;-85
2021/07/06 02:40:30;;;;;;;;;8.00;7.33;;;;;22.98;46.72;98224.88;4929738;28;102350;-85
2021/07/06 02:42:57;;;;;;;;;8.00;8.00;;;;;22.98;46.69;98226.81;4918344;28;104648;-85
2021/07/06 02:45:24;;;;;;;;;9.67;9.00;;;;;22.97;46.64;98225.97;4903969;28;102620;-86
2021/07/06 02:47:51;;;;;;;;;8.00;7.00;;;;;22.96;46.54;98224.34;4923050;28;103508;-83
2021/07/06 02:50:20;;;;;;;;;9.67;9.67;;;;;22.96;46.71;98224.34;4917186;28;103528;-85
2021/07/06 02:52:47;;;;;;;;;8.00;7.67;;;;;22.94;46.52;98226.56;4916029;28;109234;-85
2021/07/06 02:55:14;;;;;;;;;8.00;7.33;;;;;22.95;46.44;98222.72;4917581;28;103479;-83
2021/07/06 02:57:41;;;;;;;;;7.00;7.00;;;;;22.96;46.46;98218.84;4908250;28;104684;-83
2021/07/06 03:00:22;;;;;;;;;9.67;8.00;;;;;22.96;46.47;98221.59;4912668;28;103634;-83
2021/07/06 03:02:54;;;;;;;;;8.00;8.00;;;;;22.94;46.07;98210.03;4920637;28;108882;-82
2021/07/06 03:05:29;;;;;;;;;9.00;9.00;;;;;22.94;46.18;98215.53;4913173;28;102024;-82
2021/07/06 03:07:56;;;;;;;;;8.67;8.33;;;;;22.94;46.15;98223.81;4912450;28;102682;-82
2021/07/06 03:10:28;;;;;;;;;8.00;8.00;;;;;22.93;45.94;98224.91;4896664;28;103925;-82
2021/07/06 03:12:55;;;;;;;;;8.33;8.00;;;;;22.94;46.00;98226.56;4914148;28;104231;-82
2021/07/06 03:15:24;;;;;;;;;9.33;8.00;;;;;22.94;45.82;98225.75;4912761;28;102548;-82
2021/07/06 03:17:51;;;;;;;;;9.67;8.67;;;;;22.93;45.90;98233.19;4910469;28;102558;-83
2021/07/06 03:20:21;;;;;;;;;11.67;11.33;;;;;22.93;45.63;98229.59;4918885;28;102629;-83
2021/07/06 03:22:48;;;;;;;;;9.67;8.67;;;;;22.93;45.79;98227.69;4906408;28;109158;-82
2021/07/06 03:25:17;;;;;;;;;11.00;9.67;;;;;22.92;45.54;98223.25;4902517;28;102589;-83
2021/07/06 03:27:44;;;;;;;;;10.00;8.33;;;;;22.90;45.77;98228.25;4925190;28;102364;-82
2021/07/06 03:30:16;;;;;;;;;7.67;7.33;;;;;22.90;45.88;98231.03;4917076;28;102656;-83
2021/07/06 03:32:44;;;;;;;;;9.33;8.33;;;;;22.89;45.63;98229.38;4911106;28;104083;-83
2021/07/06 03:35:11;;;;;;;;;8.33;8.00;;;;;22.88;45.77;98227.72;4933573;28;102420;-83
2021/07/06 03:37:39;;;;;;;;;12.00;10.00;;;;;22.89;45.50;98223.03;4923648;28;104317;-82
2021/07/06 03:40:07;;;;;;;;;9.33;9.33;;;;;22.89;45.63;98229.38;4909323;28;102662;-82
2021/07/06 03:42:34;;;;;;;;;7.67;7.67;;;;;22.88;45.67;98222.22;4904010;28;104080;-83
2021/07/06 03:45:02;;;;;;;;;8.33;8.00;;;;;22.88;45.85;98226.91;4916981;28;102368;-83
2021/07/06 03:47:29;;;;;;;;;8.00;7.33;;;;;22.87;45.66;98217.81;4911868;28;103410;-82
2021/07/06 03:49:56;;;;;;;;;8.33;7.33;;;;;22.86;45.53;98216.19;4926506;28;102592;-82
2021/07/06 03:52:24;;;;;;;;;10.00;8.00;;;;;22.87;45.53;98217.00;4927097;28;104245;-82
2021/07/06 03:54:51;;;;;;;;;10.33;9.00;;;;;22.86;45.56;98223.63;4912271;28;103452;-83
2021/07/06 03:57:28;;;;;;;;;9.00;7.33;;;;;22.85;45.50;98219.22;4916859;28;102326;-84
2021/07/06 04:00:06;;;;;;;;;8.00;7.67;;;;;22.86;45.48;98223.63;4918222;28;102881;-84
2021/07/06 04:02:33;;;;;;;;;9.33;9.33;;;;;22.85;45.55;98221.97;4920005;28;104064;-83
2021/07/06 04:05:00;;;;;;;;;8.67;7.67;;;;;22.84;45.51;98226.66;4924113;28;102540;-84
2021/07/06 04:07:27;;;;;;;;;8.33;8.33;;;;;22.70;45.41;98206.38;4916371;28;102157;-84
2021/07/06 04:09:54;;;;;;;;;10.67;9.33;;;;;22.82;45.66;98222.56;4918630;28;102650;-83
2021/07/06 04:12:22;;;;;;;;;10.67;10.00;;;;;22.80;45.69;98230.28;4928596;28;104065;-84
2021/07/06 04:14:49;;;;;;;;;10.00;8.33;;;;;22.81;45.70;98245.72;4908759;28;102219;-84
2021/07/06 04:17:16;;;;;;;;;9.33;8.67;;;;;22.80;45.63;98244.88;4913255;28;103755;-84
2021/07/06 04:19:43;;;;;;;;;12.33;10.00;;;;;22.78;45.45;98249.88;4905281;28;102448;-83
2021/07/06 04:22:10;;;;;;;;;12.33;8.00;;;;;22.81;45.60;98254.81;4920118;28;104189;-82
2021/07/06 04:24:37;;;;;;;;;13.33;11.00;;;;;22.80;45.68;98257.84;4912486;28;102476;-83
2021/07/06 04:27:04;;;;;;;;;12.33;10.00;;;;;22.78;45.51;98252.66;4913756;28;103153;-83
2021/07/06 04:29:32;;;;;;;;;10.67;9.00;;;;;22.77;45.58;98253.75;4916067;28;102959;-82
2021/07/06 04:31:59;;;;;;;;;9.33;9.00;;;;;22.77;45.77;98248.22;4920526;28;104056;-82
2021/07/06 04:34:26;;;;;;;;;10.00;9.67;;;;;22.77;45.80;98248.22;4901419;28;102277;-83
2021/07/06 04:36:53;;;;;;;;;10.00;10.00;;;;;22.77;45.66;98253.75;4929159;28;102632;-83
2021/07/06 04:39:20;;;;;;;;;6.00;6.00;;;;;22.78;45.74;98246.31;4915439;28;102478;-82
2021/07/06 04:41:47;;;;;;;;;11.00;9.67;;;;;22.77;45.79;98251.00;4903815;28;104109;-83
2021/07/06 04:44:14;;;;;;;;;10.67;9.67;;;;;22.75;45.81;98253.19;4918673;28;105640;-82
2021/07/06 04:46:41;;;;;;;;;11.00;10.00;;;;;22.78;45.70;98252.66;4918985;28;103278;-83
2021/07/06 04:49:09;;;;;;;;;10.33;10.33;;;;;22.65;45.66;98244.97;4907331;28;103570;-83
2021/07/06 04:51:36;;;;;;;;;11.00;9.00;;;;;22.76;45.80;98262.28;4914066;28;103834;-83
2021/07/06 04:54:06;;;;;;;;;9.67;9.00;;;;;22.77;45.73;98251.00;4898249;28;102601;-82
2021/07/06 04:56:33;;;;;;;;;10.33;9.33;;;;;22.77;45.96;98252.91;4895379;28;102557;-84
2021/07/06 04:59:00;;;;;;;;;10.33;9.67;;;;;22.75;45.93;98255.97;4916284;28;102529;-84
2021/07/06 05:01:27;;;;;;;;;11.33;9.33;;;;;22.77;46.00;98261.19;4913123;28;104293;-84
2021/07/06 05:03:54;;;;;;;;;11.33;10.67;;;;;22.77;45.97;98256.50;4919960;28;102035;-84
2021/07/06 05:06:21;;;;;;;;;9.00;9.00;;;;;22.75;46.09;98261.47;4899081;28;102683;-85
2021/07/06 05:08:49;;;;;;;;;9.00;7.00;;;;;22.75;46.05;98253.19;4914980;28;102602;-84
2021/07/06 05:11:16;;;;;;;;;11.33;10.33;;;;;22.76;45.96;98262.28;4912871;28;104120;-85
2021/07/06 05:13:43;;;;;;;;;8.33;8.33;;;;;22.75;46.31;98266.97;4915191;28;102603;-84
2021/07/06 05:16:11;;;;;;;;;8.67;8.67;;;;;22.74;46.15;98270.84;4923931;28;112013;-84
2021/07/06 05:18:38;;;;;;;;;11.67;10.00;;;;;22.76;45.99;98265.06;4905368;28;102556;-84
2021/07/06 05:21:05;;;;;;;;;9.00;9.00;;;;;22.77;46.10;98267.53;4914321;28;103069;-84
2021/07/06 05:23:32;;;;;;;;;9.00;9.00;;;;;22.78;46.04;98271.94;4918245;28;102149;-84
2021/07/06 05:26:00;;;;;;;;;8.67;8.33;;;;;22.77;46.29;98270.28;4911229;28;102185;-85
2021/07/06 05:28:28;;;;;;;;;9.67;9.00;;;;;22.77;46.08;98263.94;4916413;28;103313;-85
2021/07/06 05:30:56;;;;;;;;;11.00;10.33;;;;;22.74;46.30;98270.84;4924643;28;103126;-85
2021/07/06 05:33:23;;;;;;;;;9.00;9.00;;;;;22.76;46.53;98267.81;4906495;28;102517;-84
2021/07/06 05:35:50;;;;;;;;;11.33;10.67;;;;;22.78;46.17;98265.59;4896260;28;101978;-85
2021/07/06 05:38:17;;;;;;;;;11.67;10.00;;;;;22.75;46.46;98272.50;4905547;28;103851;-86
2021/07/06 05:41:02;;;;;;;;;10.33;8.67;;;;;22.66;46.24;98252.13;4904053;28;109053;-85
2021/07/06 05:43:29;;;;;;;;;8.33;8.33;;;;;22.81;46.51;98276.03;4900497;28;103685;-85
2021/07/06 05:45:56;;;;;;;;;10.00;9.67;;;;;22.82;46.37;98277.69;4913203;28;102760;-85
2021/07/06 05:48:23;;;;;;;;;8.00;8.00;;;;;22.82;46.44;98278.53;4907333;28;102440;-85
2021/07/06 05:50:50;;;;;;;;;8.00;7.67;;;;;22.81;46.29;98282.38;4892294;28;104284;-85
2021/07/06 05:53:17;;;;;;;;;7.00;6.00;;;;;22.84;46.51;98283.72;4904903;28;103594;-83
2021/07/06 05:55:44;;;;;;;;;10.00;9.00;;;;;22.84;46.54;98284.56;4902372;28;103241;-83
2021/07/06 05:58:12;;;;;;;;;8.33;7.67;;;;;22.84;46.73;98290.06;4895722;28;102474;-82
2021/07/06 06:00:39;;;;;;;;;8.67;6.00;;;;;22.85;46.60;98282.63;4902246;28;104040;-83
2021/07/06 06:03:12;;;;;;;;;9.33;8.00;;;;;22.86;46.33;98289.78;4904991;28;102386;-82
2021/07/06 06:05:39;;;;;;;;;9.00;9.00;;;;;22.85;46.48;98291.72;4894275;28;102512;-83
2021/07/06 06:08:07;;;;;;;;;9.33;9.00;;;;;22.86;46.54;98296.13;4923193;28;103300;-84
2021/07/06 06:10:34;;;;;;;;;10.00;9.67;;;;;22.87;46.61;98284.00;4916308;28;104863;-84
2021/07/06 06:13:02;;;;;;;;;10.67;8.33;;;;;22.89;46.45;98300.22;4901850;28;102614;-83
2021/07/06 06:15:29;;;;;;;;;10.00;8.33;;;;;22.89;46.57;98306.56;4909090;28;102546;-84
2021/07/06 06:17:56;;;;;;;;;7.67;7.67;;;;;22.91;46.45;98300.78;4920808;28;101978;-84
2021/07/06 06:20:23;;;;;;;;;10.00;10.00;;;;;22.90;46.79;98299.97;4903588;28;108948;-84
2021/07/06 06:22:50;;;;;;;;;8.67;8.67;;;;;22.90;46.61;98299.97;4923811;28;102246;-84
2021/07/06 06:25:17;;;;;;;;;11.67;8.67;;;;;22.91;46.28;98298.84;4920257;28;102255;-84
2021/07/06 06:27:45;;;;;;;;;11.00;9.67;;;;;22.91;46.59;98296.09;4912538;28;102412;-84
2021/07/06 06:30:13;;;;;;;;;9.00;8.00;;;;;22.93;46.68;98301.31;4916277;28;104230;-84
2021/07/06 06:32:40;;;;;;;;;8.33;7.67;;;;;22.93;46.54;98293.84;4913479;28;102685;-84
2021/07/06 06:35:08;;;;;;;;;9.67;9.67;;;;;22.94;46.50;98298.25;4906351;28;102730;-81
2021/07/06 06:37:35;;;;;;;;;7.33;7.00;;;;;22.94;46.45;98297.44;4894369;28;105377;-83
2021/07/06 06:40:03;;;;;;;;;8.67;7.67;;;;;22.96;46.62;98289.72;4920546;28;105703;-82
2021/07/06 06:42:30;;;;;;;;;9.33;9.00;;;;;22.97;46.56;98296.84;4909139;28;103335;-84
2021/07/06 06:44:57;;;;;;;;;8.33;8.33;;;;;22.95;46.73;98294.41;4911354;28;102424;-82
2021/07/06 06:47:24;;;;;;;;;8.67;7.67;;;;;22.97;46.64;98291.34;4911672;28;102748;-83
2021/07/06 06:49:52;;;;;;;;;8.00;8.00;;;;;22.99;46.56;98300.16;4905417;28;105483;-83
2021/07/06 06:52:19;;;;;;;;;9.00;9.00;;;;;22.98;46.71;98302.09;4919941;28;102539;-83
2021/07/06 06:54:46;;;;;;;;;8.67;8.33;;;;;22.99;46.68;98306.50;4924488;28;102199;-85
2021/07/06 06:57:13;;;;;;;;;7.67;7.00;;;;;23.00;46.70;98307.31;4921952;28;102209;-85
2021/07/06 06:59:40;;;;;;;;;8.00;7.33;;;;;23.00;46.90;98307.31;4911977;28;104202;-85
2021/07/06 07:02:17;;;;;;;;;8.00;7.67;;;;;23.00;46.82;98310.09;4915427;28;110990;-85
2021/07/06 07:04:51;;;;;;;;;7.67;7.00;;;;;23.02;46.83;98307.84;4920888;28;102620;-85
2021/07/06 07:07:20;;;;;;;;;7.33;6.67;;;;;23.03;46.68;98320.53;4908943;28;102944;-85
2021/07/06 07:09:48;;;;;;;;;8.67;8.33;;;;;23.01;46.69;98304.25;4920432;28;104212;-84
2021/07/06 07:12:15;;;;;;;;;9.67;9.00;;;;;23.04;46.72;98314.72;4926420;28;102562;-85
2021/07/06 07:14:42;;;;;;;;;7.33;7.00;;;;;23.04;46.89;98303.69;4913396;28;102778;-85
2021/07/06 07:17:09;;;;;;;;;8.00;6.33;;;;;23.05;46.89;98305.34;4911186;28;105636;-85
2021/07/06 07:19:36;;;;;;;;;8.33;7.00;;;;;23.05;46.73;98316.38;4926243;28;104074;-84
2021/07/06 07:22:04;;;;;;;;;7.00;7.00;;;;;23.06;46.82;98312.50;4906841;28;103359;-84
2021/07/06 07:24:31;;;;;;;;;7.33;7.33;;;;;23.07;46.82;98314.16;4909107;28;102537;-83
2021/07/06 07:26:58;;;;;;;;;7.00;7.00;;;;;23.07;46.95;98302.28;4918900;28;104961;-82
2021/07/06 07:29:26;;;;;;;;;7.00;7.00;;;;;23.09;47.11;98313.88;4909938;28;104283;-83
2021/07/06 07:31:53;;;;;;;;;8.00;7.33;;;;;23.09;46.98;98311.94;4914909;28;102473;-84
2021/07/06 07:34:20;;;;;;;;;9.33;8.33;;;;;23.09;46.98;98311.09;4921950;28;102308;-83
2021/07/06 07:36:47;;;;;;;;;8.00;7.67;;;;;23.10;46.77;98304.47;4905437;28;102171;-83
2021/07/06 07:39:14;;;;;;;;;8.67;7.00;;;;;23.07;47.05;98303.13;4922507;28;104242;-84
2021/07/06 07:41:41;;;;;;;;;9.67;8.00;;;;;23.11;46.95;98315.22;4907009;28;102587;-83
2021/07/06 07:44:09;;;;;;;;;7.67;7.00;;;;;23.12;47.04;98316.03;4907332;28;103213;-84
2021/07/06 07:46:36;;;;;;;;;7.33;7.00;;;;;23.12;47.12;98311.34;4926469;28;102181;-82
2021/07/06 07:49:04;;;;;;;;;9.67;8.00;;;;;23.13;47.05;98315.75;4917655;28;111782;-83
2021/07/06 07:51:31;;;;;;;;;9.33;7.33;;;;;23.14;47.03;98314.63;4907292;28;102493;-83
2021/07/06 07:53:58;;;;;;;;;8.33;7.00;;;;;23.15;47.16;98315.44;4912636;28;102438;-83
2021/07/06 07:56:25;;;;;;;;;7.00;7.00;;;;;23.13;47.25;98309.41;4913990;28;102706;-82
2021/07/06 07:58:52;;;;;;;;;7.00;7.00;;;;;23.17;47.10;98307.72;4912200;28;104062;-83
2021/07/06 08:01:19;;;;;;;;;6.67;6.00;;;;;23.18;47.28;98308.56;4903535;28;102944;-83
2021/07/06 08:03:47;;;;;;;;;6.00;6.00;;;;;23.18;47.19;98314.91;4915042;28;102576;-83
2021/07/06 08:06:14;;;;;;;;;7.00;6.67;;;;;23.18;47.21;98309.38;4920973;28;102880;-83
2021/07/06 08:08:41;;;;;;;;;7.00;7.00;;;;;23.20;47.14;98322.84;4916657;28;104117;-83
2021/07/06 08:11:08;;;;;;;;;5.00;5.00;;;;;23.20;47.37;98323.69;4914205;28;102107;-83
2021/07/06 08:13:35;;;;;;;;;6.33;6.00;;;;;23.23;47.35;98325.06;4909922;28;102658;-85
2021/07/06 08:16:03;;;;;;;;;7.00;6.67;;;;;23.23;47.34;98319.53;4895001;28;102749;-84
2021/07/06 08:18:30;;;;;;;;;7.67;6.67;;;;;23.23;47.27;98322.31;4932075;28;104291;-82
2021/07/06 08:20:57;;;;;;;;;5.00;5.00;;;;;23.24;47.38;98315.66;4912147;28;102551;-83
2021/07/06 08:23:24;;;;;;;;;6.00;6.00;;;;;23.25;47.35;98312.59;4907358;28;102398;-83
2021/07/06 08:25:52;;;;;;;;;4.00;4.00;;;;;23.26;47.29;98316.19;4906973;28;102630;-83
2021/07/06 08:28:19;;;;;;;;;9.00;8.00;;;;;23.28;47.48;98313.97;4914588;28;104092;-82
2021/07/06 08:30:46;;;;;;;;;6.00;6.00;;;;;23.25;47.27;98300.75;4905307;28;103530;-83
2021/07/06 08:33:13;;;;;;;;;7.33;6.67;;;;;23.29;47.41;98312.84;4910424;28;102224;-83
2021/07/06 08:35:41;;;;;;;;;8.00;7.00;;;;;23.29;47.52;98316.44;4906208;28;102477;-83
2021/07/06 08:38:08;;;;;;;;;8.00;6.33;;;;;23.31;47.42;98305.94;4901366;28;104050;-83
2021/07/06 08:40:35;;;;;;;;;7.33;7.33;;;;;23.30;47.41;98304.28;4898321;28;102358;-83
2021/07/06 08:43:03;;;;;;;;;7.00;6.33;;;;;23.29;47.54;98302.63;4907960;28;102178;-84
2021/07/06 08:45:30;;;;;;;;;6.67;5.33;;;;;23.32;47.45;98306.78;4904522;28;110884;-83
2021/07/06 08:47:57;;;;;;;;;3.33;3.33;;;;;23.32;47.51;98312.28;4901184;28;104336;-82
2021/07/06 08:50:25;;;;;;;;;6.00;6.00;;;;;23.33;47.63;98305.63;4913948;28;102356;-83
2021/07/06 08:52:52;;;;;;;;;6.00;6.00;;;;;23.35;47.54;98297.91;4915919;28;102456;-83
2021/07/06 08:55:20;;;;;;;;;9.00;7.67;;;;;23.35;47.40;98303.41;4921881;28;103469;-82
2021/07/06 08:57:48;;;;;;;;;5.33;5.33;;;;;23.37;47.46;98312.25;4884237;28;104183;-83
2021/07/06 09:00:16;;;;;;;;;6.00;5.67;;;;;23.37;47.58;98309.47;4904984;28;102416;-83
2021/07/06 09:03:07;;;;;;;;;6.33;6.00;;;;;23.37;47.60;98309.47;4906118;28;102085;-83
2021/07/06 09:05:34;;;;;;;;;7.00;6.00;;;;;23.38;47.62;98302.81;4918887;28;103075;-83
2021/07/06 09:08:02;;;;;;;;;7.33;7.00;;;;;23.38;47.63;98300.88;4908871;28;104119;-82
2021/07/06 09:10:39;;;;;;;;;8.00;6.33;;;;;23.40;47.66;98295.91;4906873;28;102092;-83
2021/07/06 09:13:30;;;;;;;;;6.00;6.00;;;;;23.41;47.55;98311.38;4851127;28;102845;-83
2021/07/06 09:15:58;;;;;;;;;6.00;6.00;;;;;23.42;47.53;98303.88;4922493;28;102262;-83
2021/07/06 09:18:32;;;;;;;;;6.33;6.00;;;;;23.42;47.67;98299.19;4907333;28;104066;-83
2021/07/06 09:21:09;;;;;;;;;6.00;5.00;;;;;23.43;47.52;98303.59;4905741;28;102285;-83
2021/07/06 09:23:38;;;;;;;;;7.00;7.00;;;;;23.44;47.69;98293.41;4870632;28;102583;-83
2021/07/06 09:26:25;;;;;;;;;5.00;5.00;;;;;23.45;47.68;98293.13;4899941;28;102393;-83
2021/07/06 09:28:56;;;;;;;;;6.67;5.33;;;;;23.46;47.50;98282.94;4897248;28;104076;-83
2021/07/06 09:31:31;;;;;;;;;6.00;6.00;;;;;23.47;47.54;98287.31;4904108;28;102619;-83
2021/07/06 09:34:06;;;;;;;;;6.00;5.00;;;;;23.48;47.74;98291.72;4893616;28;102480;-84
2021/07/06 09:36:50;;;;;;;;;5.00;5.00;;;;;23.49;47.62;98288.69;4904373;28;102248;-83
2021/07/06 09:39:24;;;;;;;;;5.00;5.00;;;;;23.50;47.55;98292.25;4903362;28;103304;-84
2021/07/06 09:42:01;;;;;;;;;4.00;4.00;;;;;23.51;47.60;98285.59;4927165;28;102316;-84
2021/07/06 09:44:33;;;;;;;;;6.00;6.00;;;;;23.53;47.64;98288.91;4914931;28;102605;-82
2021/07/06 09:47:02;;;;;;;;;6.00;6.00;;;;;23.54;47.75;98274.00;4916108;28;102700;-83
2021/07/06 09:49:31;;;;;;;;;6.00;5.00;;;;;23.53;47.54;98275.94;4922269;28;109240;-82
2021/07/06 09:52:08;;;;;;;;;6.00;5.00;;;;;23.54;47.78;98276.75;4913750;28;102439;-83
2021/07/06 09:54:37;;;;;;;;;6.00;6.00;;;;;23.56;47.69;98274.50;4894402;28;102416;-83
2021/07/06 09:57:28;;;;;;;;;6.00;5.33;;;;;23.57;47.61;98281.69;4924119;28;103346;-84
2021/07/06 10:00:01;;;;;;;;;7.00;6.00;;;;;23.58;47.59;98277.81;4916415;28;104246;-84
2021/07/06 10:02:29;;;;;;;;;5.67;5.00;;;;;23.59;47.48;98273.13;4897305;28;102285;-84
2021/07/06 10:04:57;;;;;;;;;6.33;5.67;;;;;23.59;47.68;98273.13;4914918;28;109932;-84
2021/07/06 10:07:25;;;;;;;;;5.00;4.67;;;;;23.61;47.55;98270.88;4911014;28;102653;-84
2021/07/06 10:09:52;;;;;;;;;5.67;5.67;;;;;23.61;47.69;98268.94;4919738;28;104063;-84
2021/07/06 10:12:20;;;;;;;;;5.67;5.33;;;;;23.61;47.75;98266.19;4921942;28;103352;-84
2021/07/06 10:14:48;;;;;;;;;5.67;5.33;;;;;23.63;47.61;98263.97;4925910;28;103388;-84
2021/07/06 10:17:18;;;;;;;;;7.00;6.00;;;;;23.63;47.70;98266.72;4916078;28;102160;-84
2021/07/06 10:19:45;;;;;;;;;5.00;5.00;;;;;23.65;47.79;98270.00;4919260;28;104069;-84
2021/07/06 10:22:13;;;;;;;;;5.00;5.00;;;;;23.66;47.63;98268.88;4926721;28;102869;-84
2021/07/06 10:24:42;;;;;;;;;5.00;5.00;;;;;23.67;47.63;98262.25;4912250;28;102311;-84
2021/07/06 10:27:25;;;;;;;;;5.33;4.67;;;;;23.66;47.71;98251.50;4906923;28;102552;-84
2021/07/06 10:30:18;;;;;;;;;4.00;4.00;;;;;23.67;47.61;98244.88;4917519;28;104075;-84
2021/07/06 10:32:50;;;;;;;;;5.67;4.00;;;;;23.69;47.71;98254.47;4853436;28;102222;-84
2021/07/06 10:35:38;;;;;;;;;6.00;6.00;;;;;23.70;47.63;98249.78;4898512;28;103737;-83
2021/07/06 10:38:27;;;;;;;;;6.00;5.00;;;;;23.70;47.83;98244.25;4918869;28;104987;-84
2021/07/06 10:40:54;;;;;;;;;5.00;5.00;;;;;23.70;47.82;98245.09;4920369;28;104089;-83
2021/07/06 10:43:31;;;;;;;;;6.00;4.33;;;;;23.72;47.78;98245.63;4925217;28;102229;-83
2021/07/06 10:46:20;;;;;;;;;5.00;5.00;;;;;23.72;47.85;98237.34;4922779;28;103173;-83
2021/07/06 10:49:32;;;;;;;;;5.00;5.00;;;;;23.74;47.75;98235.09;4841799;28;102703;-84
2021/07/06 10:52:04;;;;;;;;;5.00;5.00;;;;;23.74;47.59;98246.13;4859802;28;107976;-84
2021/07/06 10:54:38;;;;;;;;;5.00;5.00;;;;;23.76;47.87;98241.16;4898469;28;103762;-84
2021/07/06 10:57:05;;;;;;;;;6.00;5.00;;;;;23.77;47.90;98239.22;4908725;28;103406;-83
2021/07/06 10:59:36;;;;;;;;;5.67;5.00;;;;;23.78;47.81;98235.31;4915790;28;102460;-84
2021/07/06 11:02:07;;;;;;;;;6.33;5.33;;;;;23.77;47.79;98234.53;4909883;28;108898;-84
2021/07/06 11:04:38;;;;;;;;;5.67;4.67;;;;;23.78;47.78;98224.28;4918249;28;103310;-84
2021/07/06 11:07:06;;;;;;;;;5.00;5.00;;;;;23.79;47.75;98217.66;4909623;28;103538;-84
2021/07/06 11:09:34;;;;;;;;;5.00;4.67;;;;;23.80;47.76;98219.28;4919449;28;102723;-83
2021/07/06 11:12:18;;;;;;;;;5.00;5.00;;;;;23.80;47.56;98217.34;4932633;28;105591;-83
2021/07/06 11:14:46;;;;;;;;;5.00;4.67;;;;;23.81;47.59;98219.00;4853182;28;102822;-83
2021/07/06 11:17:13;;;;;;;;;4.00;4.00;;;;;23.81;47.54;98213.50;4919705;28;102606;-83
2021/07/06 11:19:41;;;;;;;;;4.00;4.00;;;;;23.83;47.72;98216.75;4930024;28;102439;-83
2021/07/06 11:22:14;;;;;;;;;5.00;4.67;;;;;23.83;47.80;98214.00;4903940;28;104244;-83
2021/07/06 11:24:45;;;;;;;;;6.00;5.00;;;;;23.85;47.61;98208.19;4914186;28;102308;-84
2021/07/06 11:27:13;;;;;;;;;4.33;4.00;;;;;23.86;47.54;98220.88;4928811;28;102439;-83
2021/07/06 11:29:41;;;;;;;;;7.00;4.33;;;;;23.86;47.64;98215.38;4919761;28;102789;-83
2021/07/06 11:32:15;;;;;;;;;6.00;6.00;;;;;23.86;47.63;98215.38;4913721;28;104214;-83